createdAt,value
2017-10-11T00:01:50.518Z,13.30
2017-10-11T00:04:19.111Z,13.30
2017-10-11T00:06:47.353Z,13.30
2017-10-11T00:09:16.366Z,13.30
2017-10-11T00:11:44.645Z,13.30
2017-10-11T00:14:12.894Z,13.40
2017-10-11T00:16:41.905Z,13.40
2017-10-11T00:19:10.182Z,13.40
2017-10-11T00:21:38.434Z,13.40
2017-10-11T00:24:06.685Z,13.40
2017-10-11T00:26:35.460Z,13.50
2017-10-11T00:29:03.693Z,13.50
2017-10-11T00:31:31.941Z,13.50
2017-10-11T00:34:00.204Z,13.50
2017-10-11T00:36:28.452Z,13.50
2017-10-11T00:38:56.998Z,13.50
2017-10-11T00:41:26.033Z,13.50
2017-10-11T00:43:54.290Z,13.50
2017-10-11T00:46:22.537Z,13.50
2017-10-11T00:48:50.887Z,13.50
2017-10-11T00:51:19.162Z,13.50
2017-10-11T00:53:47.404Z,13.60
2017-10-11T00:56:15.657Z,13.60
2017-10-11T00:58:44.665Z,13.60
2017-10-11T01:01:12.910Z,13.60
2017-10-11T01:03:41.178Z,13.60
2017-10-11T01:06:09.413Z,13.60
2017-10-11T01:08:37.654Z,13.60
2017-10-11T01:11:06.492Z,13.70
2017-10-11T01:13:34.730Z,13.70
2017-10-11T01:16:02.982Z,13.70
2017-10-11T01:18:32.009Z,13.70
2017-10-11T01:21:00.250Z,13.60
2017-10-11T01:23:28.485Z,13.70
2017-10-11T01:25:56.762Z,13.70
2017-10-11T01:28:25.001Z,13.70
2017-10-11T01:30:53.998Z,13.70
2017-10-11T01:33:22.605Z,13.70
2017-10-11T01:35:50.841Z,13.70
2017-10-11T01:38:19.853Z,13.70
2017-10-11T01:40:48.341Z,13.70
2017-10-11T01:43:16.585Z,13.70
2017-10-11T01:45:44.842Z,13.70
2017-10-11T01:48:13.103Z,13.70
2017-10-11T01:50:41.341Z,13.70
2017-10-11T01:53:09.584Z,13.70
2017-10-11T01:55:38.049Z,13.70
2017-10-11T01:58:06.299Z,13.70
2017-10-11T02:00:34.534Z,13.70
2017-10-11T02:03:02.803Z,13.80
2017-10-11T02:05:32.991Z,14.00
2017-10-11T02:08:01.228Z,14.00
2017-10-11T02:10:29.503Z,14.00
2017-10-11T02:12:57.741Z,14.10
2017-10-11T02:15:25.977Z,14.10
2017-10-11T02:17:54.561Z,14.20
2017-10-11T02:20:22.802Z,14.20
2017-10-11T02:22:51.811Z,14.10
2017-10-11T02:25:20.076Z,14.10
2017-10-11T02:27:48.317Z,14.20
2017-10-11T02:30:16.559Z,14.20
2017-10-11T02:32:44.825Z,14.10
2017-10-11T02:35:13.061Z,14.10
2017-10-11T02:37:41.309Z,14.10
2017-10-11T02:40:10.074Z,14.10
2017-10-11T02:42:38.722Z,14.20
2017-10-11T02:45:07.744Z,14.20
2017-10-11T02:47:35.991Z,14.10
2017-10-11T02:50:04.226Z,14.10
2017-10-11T02:52:32.470Z,14.10
2017-10-11T02:55:00.734Z,14.10
2017-10-11T02:57:28.978Z,14.10
2017-10-11T02:59:57.209Z,14.10
2017-10-11T03:02:25.877Z,14.10
2017-10-11T03:04:54.127Z,14.10
2017-10-11T03:07:23.140Z,14.10
2017-10-11T03:09:51.400Z,14.10
2017-10-11T03:12:19.637Z,14.20
2017-10-11T03:14:47.869Z,14.20
2017-10-11T03:17:16.129Z,14.20
2017-10-11T03:19:44.370Z,14.30
2017-10-11T03:22:12.606Z,14.30
2017-10-11T03:24:41.201Z,14.20
2017-10-11T03:27:09.432Z,14.20
2017-10-11T03:29:37.677Z,14.20
2017-10-11T03:32:05.935Z,14.10
2017-10-11T03:34:34.173Z,14.00
2017-10-11T03:37:02.415Z,14.00
2017-10-11T03:39:30.674Z,14.00
2017-10-11T03:41:58.917Z,13.90
2017-10-11T03:44:27.587Z,13.90
2017-10-11T03:46:56.915Z,13.70
2017-10-11T03:49:25.153Z,13.70
2017-10-11T03:51:53.385Z,13.60
2017-10-11T03:54:21.656Z,13.60
2017-10-11T03:56:49.895Z,13.50
2017-10-11T03:59:18.140Z,13.40
2017-10-11T04:01:46.409Z,13.50
2017-10-11T04:04:16.726Z,13.50
2017-10-11T04:06:44.957Z,13.60
2017-10-11T04:09:13.343Z,13.70
2017-10-11T04:11:41.585Z,13.80
2017-10-11T04:14:09.826Z,13.80
2017-10-11T04:16:38.084Z,13.90
2017-10-11T04:19:06.325Z,13.90
2017-10-11T04:21:34.558Z,13.90
2017-10-11T04:24:02.824Z,14.00
2017-10-11T04:26:31.059Z,14.00
2017-10-11T04:28:59.293Z,14.20
2017-10-11T04:31:27.733Z,14.30
2017-10-11T04:33:55.971Z,14.20
2017-10-11T04:36:24.205Z,14.20
2017-10-11T04:38:52.466Z,14.20
2017-10-11T04:41:20.705Z,14.10
2017-10-11T04:43:48.952Z,14.10
2017-10-11T04:46:17.241Z,14.00
2017-10-11T04:48:45.485Z,14.00
2017-10-11T04:51:13.721Z,14.10
2017-10-11T04:53:43.126Z,14.10
2017-10-11T04:56:12.137Z,14.20
2017-10-11T04:58:40.383Z,14.20
2017-10-11T05:01:09.349Z,14.10
2017-10-11T05:03:37.628Z,14.10
2017-10-11T05:06:08.061Z,14.20
2017-10-11T05:08:36.324Z,14.20
2017-10-11T05:11:04.570Z,14.20
2017-10-11T05:13:32.801Z,14.20
2017-10-11T05:16:01.274Z,14.20
2017-10-11T05:18:29.540Z,14.30
2017-10-11T05:20:57.753Z,14.30
2017-10-11T05:23:26.785Z,14.30
2017-10-11T05:25:55.039Z,14.20
2017-10-11T05:28:24.040Z,14.30
2017-10-11T05:30:52.297Z,14.30
2017-10-11T05:33:21.306Z,14.30
2017-10-11T05:35:49.554Z,14.20
2017-10-11T05:38:19.054Z,14.30
2017-10-11T05:40:47.307Z,14.30
2017-10-11T05:43:15.530Z,14.30
2017-10-11T05:45:44.558Z,14.40
2017-10-11T05:48:12.990Z,14.30
2017-10-11T05:50:41.998Z,14.30
2017-10-11T05:53:11.030Z,14.30
2017-10-11T05:55:39.271Z,14.30
2017-10-11T05:58:08.274Z,14.20
2017-10-11T06:00:36.675Z,14.20
2017-10-11T06:03:04.915Z,14.20
2017-10-11T06:05:33.926Z,14.30
2017-10-11T06:08:02.185Z,14.30
2017-10-11T06:10:31.197Z,14.20
2017-10-11T06:12:59.445Z,14.20
2017-10-11T06:15:27.706Z,14.20
2017-10-11T06:17:55.946Z,14.30
2017-10-11T06:20:24.183Z,14.30
2017-10-11T06:22:52.733Z,14.30
2017-10-11T06:25:20.972Z,14.30
2017-10-11T06:27:49.230Z,14.40
2017-10-11T06:30:18.245Z,14.50
2017-10-11T06:32:46.487Z,14.50
2017-10-11T06:35:15.494Z,14.40
2017-10-11T06:37:43.758Z,14.40
2017-10-11T06:40:12.769Z,14.40
2017-10-11T06:42:41.010Z,14.40
2017-10-11T06:45:09.775Z,14.30
2017-10-11T06:47:37.993Z,14.30
2017-10-11T06:50:07.391Z,14.40
2017-10-11T06:52:36.409Z,14.50
2017-10-11T06:55:04.642Z,14.50
2017-10-11T06:57:32.881Z,14.50
2017-10-11T07:00:01.142Z,14.60
2017-10-11T07:02:29.378Z,14.80
2017-10-11T07:04:59.785Z,14.80
2017-10-11T07:07:28.241Z,14.70
2017-10-11T07:09:56.482Z,14.80
2017-10-11T07:12:25.493Z,14.70
2017-10-11T07:14:53.753Z,14.70
2017-10-11T07:17:22.758Z,14.90
2017-10-11T07:19:51.008Z,14.80
2017-10-11T07:22:20.042Z,14.90
2017-10-11T07:24:48.286Z,14.80
2017-10-11T07:27:16.576Z,14.90
2017-10-11T07:29:45.006Z,14.90
2017-10-11T07:32:14.014Z,15.00
2017-10-11T07:34:42.260Z,14.90
2017-10-11T07:37:10.521Z,15.00
2017-10-11T07:39:38.793Z,15.00
2017-10-11T07:42:07.046Z,14.90
2017-10-11T07:44:36.085Z,15.00
2017-10-11T07:47:04.334Z,15.00
2017-10-11T07:49:32.586Z,15.00
2017-10-11T07:52:01.526Z,15.00
2017-10-11T07:54:29.761Z,15.00
2017-10-11T07:56:58.765Z,14.90
2017-10-11T07:59:27.025Z,14.90
2017-10-11T08:01:56.033Z,15.00
2017-10-11T08:04:24.288Z,15.00
2017-10-11T08:06:52.550Z,15.00
2017-10-11T08:09:20.792Z,15.10
2017-10-11T08:11:49.026Z,15.10
2017-10-11T08:14:17.658Z,15.20
2017-10-11T08:16:45.890Z,15.40
2017-10-11T08:19:14.889Z,15.40
2017-10-11T08:21:43.919Z,15.50
2017-10-11T08:24:12.161Z,15.40
2017-10-11T08:26:41.166Z,15.40
2017-10-11T08:29:09.433Z,15.40
2017-10-11T08:31:37.701Z,15.40
2017-10-11T08:34:06.709Z,15.30
2017-10-11T08:36:35.419Z,15.30
2017-10-11T08:39:03.659Z,15.30
2017-10-11T08:41:32.676Z,15.40
2017-10-11T08:44:00.936Z,15.40
2017-10-11T08:46:29.941Z,15.60
2017-10-11T08:48:58.177Z,15.60
2017-10-11T08:51:26.441Z,15.80
2017-10-11T08:53:55.254Z,15.90
2017-10-11T08:56:23.703Z,16.00
2017-10-11T08:58:52.322Z,16.20
2017-10-11T09:01:21.326Z,16.40
2017-10-11T09:03:50.334Z,16.40
2017-10-11T09:06:18.604Z,16.40
2017-10-11T09:08:46.839Z,16.50
2017-10-11T09:11:15.082Z,16.50
2017-10-11T09:13:43.344Z,16.60
2017-10-11T09:16:11.586Z,16.70
2017-10-11T09:18:40.595Z,16.80
2017-10-11T09:21:09.931Z,16.90
2017-10-11T09:23:38.174Z,16.90
2017-10-11T09:26:07.186Z,17.10
2017-10-11T09:28:35.450Z,17.10
2017-10-11T09:31:03.692Z,17.20
2017-10-11T09:33:31.930Z,17.30
2017-10-11T09:36:00.197Z,17.30
2017-10-11T09:38:28.437Z,17.30
2017-10-11T09:40:57.811Z,17.30
2017-10-11T09:43:26.570Z,17.30
2017-10-11T09:45:54.801Z,17.10
2017-10-11T09:48:23.046Z,17.20
2017-10-11T09:50:51.301Z,17.20
2017-10-11T09:53:19.562Z,17.30
2017-10-11T09:55:48.122Z,17.50
2017-10-11T09:58:16.388Z,17.50
2017-10-11T10:00:44.737Z,17.70
2017-10-11T10:03:12.954Z,17.80
2017-10-11T10:05:41.301Z,17.70
2017-10-11T10:08:09.546Z,17.60
2017-10-11T10:10:37.785Z,17.50
2017-10-11T10:13:06.844Z,17.40
2017-10-11T10:15:35.094Z,17.40
2017-10-11T10:18:03.325Z,17.40
2017-10-11T10:20:31.586Z,17.30
2017-10-11T10:22:59.826Z,17.30
2017-10-11T10:25:28.058Z,17.30
2017-10-11T10:27:56.509Z,17.30
2017-10-11T10:30:24.759Z,17.20
2017-10-11T10:32:52.998Z,17.10
2017-10-11T10:35:22.027Z,17.20
2017-10-11T10:37:50.266Z,17.20
2017-10-11T10:40:18.498Z,17.30
2017-10-11T10:42:46.762Z,17.40
2017-10-11T10:45:15.002Z,17.50
2017-10-11T10:47:43.234Z,17.50
2017-10-11T10:50:11.953Z,17.50
2017-10-11T10:52:40.217Z,17.60
2017-10-11T10:55:08.467Z,17.70
2017-10-11T10:57:37.013Z,17.70
2017-10-11T11:00:05.253Z,17.60
2017-10-11T11:02:34.265Z,17.40
2017-10-11T11:05:02.525Z,17.40
2017-10-11T11:07:30.757Z,17.40
2017-10-11T11:09:59.008Z,17.40
2017-10-11T11:12:27.613Z,17.40
2017-10-11T11:14:55.850Z,17.40
2017-10-11T11:17:24.853Z,17.30
2017-10-11T11:19:53.109Z,17.30
2017-10-11T11:22:21.352Z,17.40
2017-10-11T11:24:49.631Z,17.60
2017-10-11T11:27:17.878Z,17.70
2017-10-11T11:29:46.113Z,17.70
2017-10-11T11:32:15.122Z,17.90
2017-10-11T11:34:43.737Z,17.80
2017-10-11T11:37:11.993Z,17.90
2017-10-11T11:39:40.221Z,17.90
2017-10-11T11:42:08.595Z,17.80
2017-10-11T11:44:36.829Z,17.90
2017-10-11T11:47:05.061Z,17.90
2017-10-11T11:49:33.338Z,18.00
2017-10-11T11:52:01.569Z,18.10
2017-10-11T11:54:29.809Z,18.50
2017-10-11T11:56:59.367Z,19.10
2017-10-11T11:59:28.002Z,19.10
2017-10-11T12:01:57.004Z,20.20
2017-10-11T12:04:26.139Z,19.90
2017-10-11T12:06:54.415Z,19.90
2017-10-11T12:09:22.733Z,19.50
2017-10-11T12:11:51.175Z,19.20
2017-10-11T12:14:19.405Z,19.10
2017-10-11T12:16:48.462Z,19.00
2017-10-11T12:19:16.815Z,19.00
2017-10-11T12:21:45.073Z,19.00
2017-10-11T12:24:13.303Z,18.90
2017-10-11T12:26:41.592Z,19.00
2017-10-11T12:29:09.826Z,19.10
2017-10-11T12:31:38.079Z,19.00
2017-10-11T12:34:06.354Z,19.00
2017-10-11T12:36:34.629Z,18.70
2017-10-11T12:39:02.865Z,18.70
2017-10-11T12:41:31.445Z,18.50
2017-10-11T12:43:59.681Z,18.40
2017-10-11T12:46:27.926Z,18.30
2017-10-11T12:48:56.390Z,18.30
2017-10-11T12:51:24.629Z,18.40
2017-10-11T12:53:53.029Z,18.40
2017-10-11T12:56:21.423Z,18.40
2017-10-11T12:58:49.657Z,18.30
2017-10-11T13:01:18.107Z,18.30
2017-10-11T13:03:47.220Z,18.60
2017-10-11T13:06:15.478Z,18.60
2017-10-11T13:08:44.482Z,18.70
2017-10-11T13:11:12.802Z,18.70
2017-10-11T13:13:41.110Z,18.80
2017-10-11T13:16:10.150Z,18.70
2017-10-11T13:18:38.439Z,18.70
2017-10-11T13:21:06.673Z,18.70
2017-10-11T13:23:35.682Z,18.50
2017-10-11T13:26:04.392Z,18.50
2017-10-11T13:28:32.633Z,18.50
2017-10-11T13:31:00.869Z,18.50
2017-10-11T13:33:29.137Z,18.40
2017-10-11T13:35:57.374Z,18.30
2017-10-11T13:38:25.618Z,18.20
2017-10-11T13:40:53.891Z,18.20
2017-10-11T13:43:22.127Z,18.20
2017-10-11T13:45:50.362Z,18.10
2017-10-11T13:48:19.802Z,18.00
2017-10-11T13:50:48.042Z,17.90
2017-10-11T13:53:17.043Z,17.80
2017-10-11T13:55:45.305Z,17.80
2017-10-11T13:58:13.550Z,17.90
2017-10-11T14:00:41.785Z,18.30
2017-10-11T14:03:10.285Z,18.90
2017-10-11T14:05:38.886Z,19.20
2017-10-11T14:08:07.105Z,19.40
2017-10-11T14:10:35.825Z,19.40
2017-10-11T14:13:04.326Z,19.30
2017-10-11T14:15:32.554Z,19.20
2017-10-11T14:18:01.578Z,18.90
2017-10-11T14:20:29.821Z,18.90
2017-10-11T14:22:58.057Z,18.90
2017-10-11T14:25:26.327Z,18.80
2017-10-11T14:27:54.596Z,18.60
2017-10-11T14:30:22.985Z,18.40
2017-10-11T14:32:51.274Z,18.30
2017-10-11T14:35:19.527Z,18.20
2017-10-11T14:37:47.770Z,18.10
2017-10-11T14:40:16.138Z,18.10
2017-10-11T14:42:45.150Z,18.00
2017-10-11T14:45:13.393Z,18.00
2017-10-11T14:47:41.658Z,18.00
2017-10-11T14:50:10.019Z,17.90
2017-10-11T14:52:38.397Z,17.80
2017-10-11T14:55:07.103Z,17.80
2017-10-11T14:57:36.537Z,17.70
2017-10-11T15:00:04.761Z,17.70
2017-10-11T15:02:33.143Z,17.70
2017-10-11T15:05:02.756Z,17.80
2017-10-11T15:07:31.137Z,17.80
2017-10-11T15:09:59.384Z,17.80
2017-10-11T15:12:27.649Z,17.70
2017-10-11T15:14:55.878Z,17.70
2017-10-11T15:17:24.305Z,17.60
2017-10-11T15:19:52.562Z,17.70
2017-10-11T15:22:21.573Z,17.70
2017-10-11T15:24:49.842Z,17.70
2017-10-11T15:27:18.086Z,17.60
2017-10-11T15:29:46.332Z,17.60
2017-10-11T15:32:14.628Z,17.60
2017-10-11T15:34:42.867Z,17.50
2017-10-11T15:37:11.110Z,17.40
2017-10-11T15:39:39.638Z,17.40
2017-10-11T15:42:07.899Z,17.40
2017-10-11T15:44:36.145Z,17.40
2017-10-11T15:47:04.414Z,17.50
2017-10-11T15:49:33.434Z,17.50
2017-10-11T15:52:02.673Z,17.40
2017-10-11T15:54:31.072Z,17.40
2017-10-11T15:56:59.441Z,17.50
2017-10-11T15:59:27.809Z,17.50
2017-10-11T16:01:56.286Z,17.50
2017-10-11T16:04:24.526Z,17.40
2017-10-11T16:06:52.766Z,17.40
2017-10-11T16:09:21.033Z,17.40
2017-10-11T16:11:49.278Z,17.40
2017-10-11T16:14:17.510Z,17.20
2017-10-11T16:16:45.789Z,17.20
2017-10-11T16:19:14.789Z,17.20
2017-10-11T16:21:43.038Z,17.10
2017-10-11T16:24:11.681Z,17.20
2017-10-11T16:26:39.925Z,17.20
2017-10-11T16:29:08.165Z,17.10
2017-10-11T16:31:36.513Z,17.10
2017-10-11T16:34:04.756Z,17.00
2017-10-11T16:36:33.206Z,17.00
2017-10-11T16:39:01.477Z,17.00
2017-10-11T16:41:29.718Z,17.00
2017-10-11T16:43:58.021Z,17.00
2017-10-11T16:46:26.775Z,17.00
2017-10-11T16:48:55.029Z,17.00
2017-10-11T16:51:24.038Z,17.10
2017-10-11T16:53:52.337Z,17.00
2017-10-11T16:56:20.585Z,17.00
2017-10-11T16:58:48.827Z,16.90
2017-10-11T17:01:17.085Z,17.00
2017-10-11T17:03:45.329Z,16.90
2017-10-11T17:06:13.568Z,16.80
2017-10-11T17:08:42.501Z,16.80
2017-10-11T17:11:10.740Z,16.60
2017-10-11T17:13:39.749Z,16.60
2017-10-11T17:16:08.216Z,16.60
2017-10-11T17:18:36.500Z,16.60
2017-10-11T17:21:04.721Z,16.60
2017-10-11T17:23:32.993Z,16.50
2017-10-11T17:26:01.225Z,16.40
2017-10-11T17:28:29.465Z,16.30
2017-10-11T17:30:58.225Z,16.20
2017-10-11T17:33:26.465Z,16.00
2017-10-11T17:35:55.472Z,15.70
2017-10-11T17:38:24.293Z,15.70
2017-10-11T17:40:52.585Z,15.60
2017-10-11T17:43:20.846Z,15.40
2017-10-11T17:45:49.126Z,15.30
2017-10-11T17:48:17.360Z,15.20
2017-10-11T17:50:46.369Z,15.10
2017-10-11T17:53:14.997Z,15.10
2017-10-11T17:55:43.379Z,15.10
2017-10-11T17:58:11.606Z,15.00
2017-10-11T18:00:39.865Z,15.00
2017-10-11T18:03:08.879Z,14.80
2017-10-11T18:05:37.113Z,14.80
2017-10-11T18:08:05.374Z,14.80
2017-10-11T18:10:33.960Z,14.70
2017-10-11T18:13:02.173Z,14.70
2017-10-11T18:15:30.621Z,14.60
2017-10-11T18:17:58.873Z,14.60
2017-10-11T18:20:27.122Z,14.50
2017-10-11T18:22:55.381Z,14.50
2017-10-11T18:25:24.402Z,14.40
2017-10-11T18:27:52.642Z,14.40
2017-10-11T18:30:20.909Z,14.40
2017-10-11T18:32:49.145Z,14.40
2017-10-11T18:35:18.465Z,14.30
2017-10-11T18:37:46.818Z,14.30
2017-10-11T18:40:15.058Z,14.30
2017-10-11T18:42:43.293Z,14.30
2017-10-11T18:45:11.878Z,14.20
2017-10-11T18:47:40.094Z,14.20
2017-10-11T18:50:09.098Z,14.20
2017-10-11T18:52:37.369Z,14.20
2017-10-11T18:55:07.342Z,14.20
2017-10-11T18:57:35.582Z,14.20
2017-10-11T19:00:03.898Z,14.20
2017-10-11T19:02:32.134Z,14.20
2017-10-11T19:05:00.380Z,14.10
2017-10-11T19:07:29.562Z,14.10
2017-10-11T19:09:57.805Z,14.10
2017-10-11T19:12:26.337Z,14.10
2017-10-11T19:14:55.361Z,14.20
2017-10-11T19:17:23.602Z,14.10
2017-10-11T19:19:52.063Z,14.20
2017-10-11T19:22:20.418Z,14.20
2017-10-11T19:24:48.670Z,14.20
2017-10-11T19:27:16.913Z,14.20
2017-10-11T19:29:45.948Z,14.10
2017-10-11T19:32:14.185Z,14.10
2017-10-11T19:34:42.429Z,14.10
2017-10-11T19:37:10.686Z,14.00
2017-10-11T19:39:38.926Z,13.90
2017-10-11T19:42:07.928Z,13.80
2017-10-11T19:44:36.270Z,13.80
2017-10-11T19:47:04.513Z,13.80
2017-10-11T19:49:32.761Z,13.70
2017-10-11T19:52:01.790Z,13.60
2017-10-11T19:54:30.045Z,13.60
2017-10-11T19:56:58.365Z,13.60
2017-10-11T19:59:26.621Z,13.50
2017-10-11T20:01:54.869Z,13.50
2017-10-11T20:04:23.122Z,13.40
2017-10-11T20:06:51.649Z,13.40
2017-10-11T20:09:19.902Z,13.30
2017-10-11T20:11:48.139Z,13.40
2017-10-11T20:14:16.771Z,13.40
2017-10-11T20:16:45.013Z,13.40
2017-10-11T20:19:13.258Z,13.40
2017-10-11T20:21:41.517Z,13.40
2017-10-11T20:24:09.766Z,13.50
2017-10-11T20:26:38.017Z,13.50
2017-10-11T20:29:07.283Z,13.50
2017-10-11T20:31:35.525Z,13.50
2017-10-11T20:34:04.606Z,13.50
2017-10-11T20:36:32.870Z,13.50
2017-10-11T20:39:01.886Z,13.40
2017-10-11T20:41:30.137Z,13.50
2017-10-11T20:43:59.179Z,13.40
2017-10-11T20:46:27.422Z,13.40
2017-10-11T20:48:56.448Z,13.40
2017-10-11T20:51:25.237Z,13.30
2017-10-11T20:53:53.485Z,13.30
2017-10-11T20:56:22.490Z,13.20
2017-10-11T20:58:50.754Z,13.20
2017-10-11T21:01:18.993Z,13.20
2017-10-11T21:03:47.237Z,13.10
2017-10-11T21:06:15.542Z,13.00
2017-10-11T21:08:43.803Z,13.00
2017-10-11T21:11:12.042Z,12.90
2017-10-11T21:13:40.653Z,12.90
2017-10-11T21:16:09.030Z,12.90
2017-10-11T21:18:37.273Z,13.00
2017-10-11T21:21:06.315Z,13.00
2017-10-11T21:23:34.554Z,13.00
2017-10-11T21:26:02.819Z,13.00
2017-10-11T21:28:31.841Z,12.90
2017-10-11T21:31:00.082Z,12.90
2017-10-11T21:33:28.319Z,12.90
2017-10-11T21:35:56.914Z,12.90
2017-10-11T21:38:25.281Z,12.80
2017-10-11T21:40:53.521Z,12.80
2017-10-11T21:43:21.789Z,12.80
2017-10-11T21:45:50.032Z,12.80
2017-10-11T21:48:18.276Z,12.70
2017-10-11T21:50:47.522Z,12.70
2017-10-11T21:53:16.533Z,12.60
2017-10-11T21:55:44.777Z,12.60
2017-10-11T21:58:13.630Z,12.60
2017-10-11T22:00:41.873Z,12.60
2017-10-11T22:03:10.878Z,12.70
2017-10-11T22:05:39.686Z,12.70
2017-10-11T22:08:07.923Z,12.80
2017-10-11T22:10:36.404Z,12.90
2017-10-11T22:13:05.426Z,12.90
2017-10-11T22:15:33.661Z,12.90
2017-10-11T22:18:02.141Z,13.00
2017-10-11T22:20:30.574Z,13.00
2017-10-11T22:22:58.819Z,13.10
2017-10-11T22:25:27.829Z,13.00
2017-10-11T22:27:56.094Z,13.00
2017-10-11T22:30:24.334Z,13.00
2017-10-11T22:32:52.574Z,12.90
2017-10-11T22:35:20.834Z,12.90
2017-10-11T22:37:49.077Z,12.90
2017-10-11T22:40:17.320Z,12.90
2017-10-11T22:42:45.675Z,12.90
2017-10-11T22:45:13.913Z,12.90
2017-10-11T22:47:42.158Z,12.90
2017-10-11T22:50:10.634Z,12.90
2017-10-11T22:52:38.856Z,12.90
2017-10-11T22:55:07.873Z,13.00
2017-10-11T22:57:36.137Z,13.00
2017-10-11T23:00:04.576Z,13.10
2017-10-11T23:02:32.802Z,13.10
2017-10-11T23:05:01.318Z,13.20
2017-10-11T23:07:29.553Z,13.20
2017-10-11T23:09:57.796Z,13.20
2017-10-11T23:12:26.062Z,13.20
2017-10-11T23:14:54.305Z,13.10
2017-10-11T23:17:22.550Z,13.10
2017-10-11T23:19:51.592Z,13.10
2017-10-11T23:22:19.838Z,13.10
2017-10-11T23:24:48.082Z,13.00
2017-10-11T23:27:17.438Z,13.00
2017-10-11T23:29:45.690Z,12.90
2017-10-11T23:32:14.109Z,12.90
2017-10-11T23:34:42.365Z,12.90
2017-10-11T23:37:10.605Z,12.80
2017-10-11T23:39:39.613Z,12.70
2017-10-11T23:42:07.963Z,12.70
2017-10-11T23:44:36.970Z,12.70
2017-10-11T23:47:05.980Z,12.80
2017-10-11T23:49:34.681Z,12.80
2017-10-11T23:52:02.918Z,12.80
2017-10-11T23:54:31.158Z,12.90
2017-10-11T23:56:59.421Z,12.80
2017-10-11T23:59:27.665Z,12.80
